createdAt,value
2018-01-06T00:02:23.908Z,8.87
2018-01-06T00:04:50.900Z,6.07
2018-01-06T00:07:18.299Z,8.60
2018-01-06T00:09:45.012Z,4.40
2018-01-06T00:12:12.555Z,9.00
2018-01-06T00:14:40.983Z,6.77
2018-01-06T00:17:09.117Z,7.33
2018-01-06T00:19:37.040Z,7.70
2018-01-06T00:22:04.899Z,7.50
2018-01-06T00:24:32.342Z,6.97
2018-01-06T00:27:02.059Z,3.57
2018-01-06T00:29:30.958Z,6.23
2018-01-06T00:32:00.585Z,5.20
2018-01-06T00:34:28.608Z,6.77
2018-01-06T00:36:55.993Z,7.17
2018-01-06T00:39:24.151Z,8.17
2018-01-06T00:41:52.938Z,6.73
2018-01-06T00:44:20.289Z,7.80
2018-01-06T00:46:47.442Z,3.07
2018-01-06T00:49:15.621Z,9.20
2018-01-06T00:51:43.161Z,5.97
2018-01-06T00:54:10.327Z,7.60
2018-01-06T00:56:38.227Z,5.20
2018-01-06T00:59:05.876Z,5.33
2018-01-06T01:01:33.905Z,9.17
2018-01-06T01:04:02.918Z,9.33
2018-01-06T01:06:35.281Z,6.17
2018-01-06T01:09:02.676Z,5.30
2018-01-06T01:11:31.948Z,4.17
2018-01-06T01:13:59.104Z,7.60
2018-01-06T01:16:26.398Z,4.03
2018-01-06T01:18:53.776Z,5.23
2018-01-06T01:21:20.629Z,5.90
2018-01-06T01:23:48.686Z,8.60
2018-01-06T01:26:16.592Z,5.70
2018-01-06T01:28:43.970Z,7.13
2018-01-06T01:31:11.496Z,10.03
2018-01-06T01:33:39.758Z,5.00
2018-01-06T01:36:10.062Z,8.97
2018-01-06T01:38:37.258Z,5.80
2018-01-06T01:41:05.642Z,8.50
2018-01-06T01:43:34.188Z,5.73
2018-01-06T01:46:02.036Z,7.03
2018-01-06T01:48:29.907Z,4.57
2018-01-06T01:50:57.691Z,6.50
2018-01-06T01:53:25.926Z,5.90
2018-01-06T01:55:53.929Z,5.60
2018-01-06T01:58:22.357Z,9.20
2018-01-06T02:00:50.249Z,5.73
2018-01-06T02:03:17.984Z,4.93
2018-01-06T02:05:45.237Z,7.47
2018-01-06T02:08:12.329Z,7.37
2018-01-06T02:10:40.283Z,8.23
2018-01-06T02:13:07.501Z,10.43
2018-01-06T02:15:34.815Z,8.27
2018-01-06T02:18:02.030Z,7.00
2018-01-06T02:20:30.138Z,9.70
2018-01-06T02:22:58.394Z,10.70
2018-01-06T02:25:25.467Z,10.57
2018-01-06T02:27:53.390Z,9.93
2018-01-06T02:30:20.637Z,10.83
2018-01-06T02:32:49.115Z,13.53
2018-01-06T02:35:16.118Z,11.00
2018-01-06T02:37:43.523Z,9.63
2018-01-06T02:40:10.882Z,12.43
2018-01-06T02:42:39.053Z,9.23
2018-01-06T02:45:07.428Z,10.83
2018-01-06T02:47:35.613Z,10.47
2018-01-06T02:50:04.800Z,8.87
2018-01-06T02:52:32.173Z,9.60
2018-01-06T02:54:59.081Z,16.80
2018-01-06T02:57:32.293Z,12.80
2018-01-06T02:59:59.625Z,16.30
2018-01-06T03:02:27.105Z,10.27
2018-01-06T03:04:55.157Z,12.30
2018-01-06T03:07:23.125Z,12.63
2018-01-06T03:09:50.165Z,11.67
2018-01-06T03:12:17.235Z,15.83
2018-01-06T03:14:44.913Z,9.97
2018-01-06T03:17:12.161Z,9.90
2018-01-06T03:19:40.129Z,12.70
2018-01-06T03:22:07.157Z,14.60
2018-01-06T03:24:34.839Z,13.50
2018-01-06T03:27:01.981Z,9.83
2018-01-06T03:29:29.951Z,10.30
2018-01-06T03:31:58.717Z,11.17
2018-01-06T03:34:25.994Z,10.97
2018-01-06T03:36:53.931Z,13.90
2018-01-06T03:39:21.281Z,14.43
2018-01-06T03:41:48.532Z,12.37
2018-01-06T03:44:15.583Z,11.00
2018-01-06T03:46:43.468Z,17.20
2018-01-06T03:49:10.815Z,19.40
2018-01-06T03:51:38.925Z,12.53
2018-01-06T03:54:06.698Z,15.37
2018-01-06T03:56:34.874Z,11.03
2018-01-06T03:59:02.288Z,10.37
2018-01-06T04:01:30.481Z,15.00
2018-01-06T04:03:57.901Z,14.80
2018-01-06T04:06:25.262Z,6.97
2018-01-06T04:08:53.653Z,9.83
2018-01-06T04:11:21.039Z,8.03
2018-01-06T04:13:57.254Z,12.20
2018-01-06T04:16:25.630Z,11.33
2018-01-06T04:18:54.214Z,10.80
2018-01-06T04:21:22.074Z,14.63
2018-01-06T04:23:49.038Z,14.33
2018-01-06T04:26:16.474Z,12.77
2018-01-06T04:28:43.854Z,9.30
2018-01-06T04:31:15.409Z,8.73
2018-01-06T04:33:43.128Z,11.63
2018-01-06T04:36:10.707Z,9.23
2018-01-06T04:38:38.364Z,10.27
2018-01-06T04:41:05.766Z,9.20
2018-01-06T04:43:34.193Z,14.97
2018-01-06T04:46:04.007Z,10.70
2018-01-06T04:48:31.559Z,14.10
2018-01-06T04:50:58.394Z,14.20
2018-01-06T04:53:25.463Z,12.80
2018-01-06T04:55:53.517Z,11.57
2018-01-06T04:58:21.302Z,18.13
2018-01-06T05:00:48.729Z,13.50
2018-01-06T05:03:15.849Z,14.80
2018-01-06T05:05:43.341Z,18.53
2018-01-06T05:08:11.005Z,12.03
2018-01-06T05:10:38.644Z,16.07
2018-01-06T05:13:06.417Z,16.90
2018-01-06T05:15:33.516Z,17.00
2018-01-06T05:18:01.537Z,18.77
2018-01-06T05:20:29.710Z,17.03
2018-01-06T05:22:58.314Z,16.33
2018-01-06T05:25:26.266Z,18.37
2018-01-06T05:27:54.732Z,15.63
2018-01-06T05:30:21.890Z,19.23
2018-01-06T05:32:51.074Z,19.80
2018-01-06T05:35:18.033Z,16.23
2018-01-06T05:37:47.226Z,14.87
2018-01-06T05:40:15.101Z,13.10
2018-01-06T05:42:42.034Z,17.90
2018-01-06T05:45:09.376Z,16.10
2018-01-06T05:47:37.264Z,14.83
2018-01-06T05:50:05.535Z,14.00
2018-01-06T05:52:33.114Z,17.63
2018-01-06T05:55:02.567Z,19.33
2018-01-06T05:57:30.355Z,15.90
2018-01-06T05:59:58.772Z,14.43
2018-01-06T06:02:26.831Z,22.17
2018-01-06T06:04:55.069Z,16.20
2018-01-06T06:07:27.394Z,16.23
2018-01-06T06:09:55.238Z,15.63
2018-01-06T06:12:22.895Z,18.53
2018-01-06T06:14:51.260Z,18.33
2018-01-06T06:17:18.636Z,18.50
2018-01-06T06:19:47.601Z,16.57
2018-01-06T06:22:16.267Z,16.77
2018-01-06T06:24:44.054Z,21.93
2018-01-06T06:27:11.394Z,17.80
2018-01-06T06:29:46.423Z,17.30
2018-01-06T06:32:13.795Z,18.13
2018-01-06T06:34:41.233Z,15.13
2018-01-06T06:37:08.401Z,20.33
2018-01-06T06:39:36.239Z,28.53
2018-01-06T06:42:04.121Z,17.50
2018-01-06T06:44:32.922Z,18.70
2018-01-06T06:47:00.469Z,20.80
2018-01-06T06:49:28.258Z,19.30
2018-01-06T06:51:55.613Z,21.57
2018-01-06T06:54:24.499Z,19.00
2018-01-06T06:56:53.726Z,20.63
2018-01-06T06:59:21.214Z,18.67
2018-01-06T07:01:49.184Z,18.10
2018-01-06T07:04:17.034Z,20.10
2018-01-06T07:06:44.296Z,22.63
2018-01-06T07:09:11.649Z,21.50
2018-01-06T07:11:39.556Z,21.10
2018-01-06T07:14:08.314Z,20.73
2018-01-06T07:16:36.276Z,22.10
2018-01-06T07:19:03.408Z,22.93
2018-01-06T07:21:31.318Z,21.80
2018-01-06T07:23:58.741Z,19.10
2018-01-06T07:26:26.912Z,21.07
2018-01-06T07:28:55.524Z,20.80
2018-01-06T07:31:23.768Z,17.67
2018-01-06T07:33:52.224Z,21.27
2018-01-06T07:36:20.440Z,19.63
2018-01-06T07:38:48.442Z,21.97
2018-01-06T07:41:15.452Z,20.50
2018-01-06T07:43:43.114Z,25.10
2018-01-06T07:46:10.280Z,19.60
2018-01-06T07:48:37.605Z,23.17
2018-01-06T07:51:05.328Z,19.60
2018-01-06T07:53:32.820Z,20.73
2018-01-06T07:55:59.838Z,22.80
2018-01-06T07:58:32.448Z,22.43
2018-01-06T08:00:59.998Z,20.23
2018-01-06T08:03:27.757Z,20.27
2018-01-06T08:05:54.778Z,19.80
2018-01-06T08:08:21.970Z,21.10
2018-01-06T08:10:50.271Z,19.87
2018-01-06T08:13:19.041Z,25.50
2018-01-06T08:15:46.650Z,19.77
2018-01-06T08:18:14.658Z,23.40
2018-01-06T08:20:42.923Z,20.70
2018-01-06T08:23:09.881Z,20.13
2018-01-06T08:25:37.046Z,18.90
2018-01-06T08:28:05.152Z,19.20
2018-01-06T08:30:32.566Z,21.20
2018-01-06T08:33:00.624Z,21.07
2018-01-06T08:35:29.604Z,18.50
2018-01-06T08:37:56.919Z,20.83
2018-01-06T08:40:24.146Z,21.30
2018-01-06T08:42:51.754Z,19.20
2018-01-06T08:45:19.156Z,21.97
2018-01-06T08:47:48.780Z,22.10
2018-01-06T08:50:17.169Z,21.50
2018-01-06T08:52:44.821Z,19.50
2018-01-06T08:55:12.468Z,21.67
2018-01-06T08:57:39.676Z,20.20
2018-01-06T09:00:06.721Z,18.57
2018-01-06T09:02:34.421Z,19.97
2018-01-06T09:05:02.102Z,21.93
2018-01-06T09:07:30.120Z,19.53
2018-01-06T09:09:59.814Z,21.33
2018-01-06T09:12:28.273Z,17.57
2018-01-06T09:14:55.693Z,17.87
2018-01-06T09:17:23.155Z,19.53
2018-01-06T09:19:50.126Z,17.80
2018-01-06T09:22:17.407Z,20.10
2018-01-06T09:24:45.791Z,18.60
2018-01-06T09:27:17.441Z,15.83
2018-01-06T09:29:44.240Z,14.77
2018-01-06T09:32:11.631Z,17.13
2018-01-06T09:34:39.706Z,16.70
2018-01-06T09:37:08.800Z,16.80
2018-01-06T09:39:57.337Z,15.80
2018-01-06T09:42:24.392Z,13.97
2018-01-06T09:44:52.256Z,14.80
2018-01-06T09:47:19.991Z,12.60
2018-01-06T09:49:46.970Z,14.60
2018-01-06T09:52:14.514Z,19.83
2018-01-06T09:54:41.778Z,15.20
2018-01-06T09:57:09.801Z,16.40
2018-01-06T09:59:38.206Z,17.20
2018-01-06T10:02:05.096Z,16.60
2018-01-06T10:04:33.472Z,16.23
2018-01-06T10:07:01.101Z,17.77
2018-01-06T10:09:29.406Z,15.47
2018-01-06T10:11:56.645Z,14.03
2018-01-06T10:14:24.186Z,14.57
2018-01-06T10:16:52.372Z,13.30
2018-01-06T10:19:20.352Z,15.93
2018-01-06T10:21:47.924Z,11.97
2018-01-06T10:24:15.462Z,15.30
2018-01-06T10:26:42.048Z,12.70
2018-01-06T10:29:08.458Z,15.73
2018-01-06T10:31:34.897Z,14.70
2018-01-06T10:34:03.426Z,12.50
2018-01-06T10:36:30.075Z,16.23
2018-01-06T10:38:58.447Z,15.33
2018-01-06T10:41:25.120Z,11.50
2018-01-06T10:43:51.508Z,12.80
2018-01-06T10:46:17.899Z,13.07
2018-01-06T10:48:44.323Z,11.93
2018-01-06T10:51:10.733Z,11.87
2018-01-06T10:53:37.327Z,11.87
2018-01-06T10:56:04.486Z,11.20
2018-01-06T10:58:31.723Z,10.80
2018-01-06T11:01:05.291Z,13.13
2018-01-06T11:03:32.044Z,12.50
2018-01-06T11:05:58.575Z,12.70
2018-01-06T11:08:25.015Z,15.63
2018-01-06T11:10:51.395Z,9.50
2018-01-06T11:13:18.933Z,10.10
2018-01-06T11:15:49.050Z,15.30
2018-01-06T11:18:15.769Z,11.47
2018-01-06T11:20:42.183Z,15.10
2018-01-06T11:23:08.638Z,10.67
2018-01-06T11:25:35.924Z,11.67
2018-01-06T11:28:02.400Z,12.30
2018-01-06T11:30:28.828Z,11.80
2018-01-06T11:32:55.734Z,11.93
2018-01-06T11:35:26.460Z,17.93
2018-01-06T11:37:56.755Z,10.07
2018-01-06T11:40:27.999Z,13.27
2018-01-06T11:42:57.035Z,12.07
2018-01-06T11:45:24.651Z,12.37
2018-01-06T11:47:52.952Z,9.93
2018-01-06T11:50:19.411Z,13.97
2018-01-06T11:52:46.672Z,13.10
2018-01-06T11:55:13.197Z,12.00
2018-01-06T11:57:39.725Z,9.97
2018-01-06T12:00:08.043Z,12.80
2018-01-06T12:08:54.034Z,13.20
2018-01-06T12:11:20.490Z,13.13
2018-01-06T12:13:47.699Z,9.07
2018-01-06T12:16:14.187Z,9.67
2018-01-06T12:18:40.712Z,14.07
2018-01-06T12:21:08.036Z,11.90
2018-01-06T12:23:35.258Z,11.87
2018-01-06T12:26:01.650Z,10.43
2018-01-06T12:28:28.090Z,11.73
2018-01-06T12:30:54.534Z,10.17
2018-01-06T12:33:21.036Z,9.60
2018-01-06T12:35:47.469Z,8.33
2018-01-06T12:38:14.106Z,8.20
2018-01-06T12:40:40.537Z,13.50
2018-01-06T12:46:18.039Z,13.43
2018-01-06T12:48:44.561Z,13.00
2018-01-06T12:51:11.781Z,9.90
2018-01-06T12:53:38.331Z,12.80
2018-01-06T12:56:04.736Z,11.80
2018-01-06T12:58:31.176Z,14.90
2018-01-06T13:00:57.665Z,11.90
2018-01-06T13:03:24.900Z,10.50
2018-01-06T13:05:51.314Z,11.37
2018-01-06T13:08:18.503Z,9.17
2018-01-06T13:10:45.668Z,10.27
2018-01-06T13:13:12.143Z,9.10
2018-01-06T13:15:38.682Z,11.17
2018-01-06T13:18:06.635Z,10.90
2018-01-06T13:20:33.079Z,14.43
2018-01-06T13:22:59.852Z,11.77
2018-01-06T13:25:27.007Z,8.67
2018-01-06T13:27:53.437Z,9.00
2018-01-06T13:30:20.608Z,10.10
2018-01-06T13:32:47.008Z,8.40
2018-01-06T13:35:13.420Z,9.20
2018-01-06T13:37:39.929Z,9.50
2018-01-06T13:40:06.411Z,14.10
2018-01-06T13:42:33.702Z,18.67
2018-01-06T13:45:00.300Z,14.27
2018-01-06T13:47:27.519Z,9.30
2018-01-06T13:49:53.951Z,11.57
2018-01-06T13:52:20.355Z,14.30
2018-01-06T13:54:46.763Z,10.93
2018-01-06T13:57:13.310Z,12.47
2018-01-06T13:59:39.757Z,18.27
2018-01-06T14:02:06.216Z,14.23
2018-01-06T14:04:32.652Z,12.50
2018-01-06T14:06:59.218Z,17.73
2018-01-06T14:09:25.616Z,10.50
2018-01-06T14:11:52.086Z,14.37
2018-01-06T14:14:18.695Z,14.23
2018-01-06T14:16:45.129Z,14.40
2018-01-06T14:19:11.553Z,15.90
2018-01-06T14:21:38.017Z,16.73
2018-01-06T14:24:04.529Z,13.30
2018-01-06T14:26:30.998Z,13.13
2018-01-06T14:28:57.500Z,15.83
2018-01-06T14:31:23.968Z,14.90
2018-01-06T14:33:51.142Z,15.47
2018-01-06T14:36:18.346Z,11.80
2018-01-06T14:38:44.872Z,22.07
2018-01-06T14:41:11.328Z,11.37
2018-01-06T14:43:39.292Z,12.67
2018-01-06T14:46:05.689Z,15.53
2018-01-06T14:48:32.109Z,11.47
2018-01-06T14:50:58.519Z,17.50
2018-01-06T14:53:24.915Z,20.67
2018-01-06T14:55:51.363Z,18.77
2018-01-06T14:58:17.866Z,16.77
2018-01-06T15:00:44.368Z,15.63
2018-01-06T15:03:10.946Z,21.57
2018-01-06T15:05:37.458Z,15.90
2018-01-06T15:08:03.928Z,21.03
2018-01-06T15:10:30.327Z,16.90
2018-01-06T15:12:56.985Z,15.13
2018-01-06T15:15:27.078Z,19.20
2018-01-06T15:17:53.605Z,19.17
2018-01-06T15:20:20.083Z,18.77
2018-01-06T15:22:46.547Z,19.47
2018-01-06T15:25:12.991Z,16.20
2018-01-06T15:27:39.543Z,18.87
2018-01-06T15:30:05.958Z,16.40
2018-01-06T15:32:32.404Z,17.07
2018-01-06T15:34:58.864Z,16.10
2018-01-06T15:37:25.356Z,14.47
2018-01-06T15:39:51.784Z,14.60
2018-01-06T15:42:18.982Z,15.80
2018-01-06T15:44:45.423Z,19.40
2018-01-06T15:47:11.972Z,15.57
2018-01-06T15:49:39.335Z,15.93
2018-01-06T15:52:06.537Z,18.93
2018-01-06T15:54:33.101Z,19.83
2018-01-06T15:56:59.599Z,20.13
2018-01-06T15:59:26.095Z,26.17
2018-01-06T16:01:52.596Z,22.00
2018-01-06T16:04:19.070Z,23.57
2018-01-06T16:06:45.530Z,29.43
2018-01-06T16:09:12.010Z,33.00
2018-01-06T16:11:38.494Z,25.60
2018-01-06T16:14:04.950Z,23.90
2018-01-06T16:16:31.427Z,29.43
2018-01-06T16:18:57.864Z,34.60
2018-01-06T16:21:24.279Z,33.00
2018-01-06T16:23:50.782Z,28.77
2018-01-06T16:26:17.196Z,28.60
2018-01-06T16:28:43.594Z,31.00
2018-01-06T16:31:10.064Z,24.77
2018-01-06T16:33:36.570Z,21.57
2018-01-06T16:36:03.780Z,20.57
2018-01-06T16:38:30.168Z,24.00
2018-01-06T16:40:56.678Z,19.43
2018-01-06T16:43:23.126Z,18.57
2018-01-06T16:45:50.411Z,22.37
2018-01-06T16:48:16.946Z,11.73
2018-01-06T16:50:43.329Z,17.30
2018-01-06T16:53:09.866Z,19.07
2018-01-06T16:55:36.287Z,17.00
2018-01-06T16:58:02.778Z,13.03
2018-01-06T17:00:29.224Z,17.00
2018-01-06T17:02:55.672Z,20.13
2018-01-06T17:05:22.236Z,11.83
2018-01-06T17:07:49.564Z,17.97
2018-01-06T17:10:16.012Z,10.07
2018-01-06T17:12:42.560Z,13.03
2018-01-06T17:15:08.963Z,12.40
2018-01-06T17:17:35.733Z,13.70
2018-01-06T17:20:02.345Z,19.57
2018-01-06T17:22:28.917Z,14.40
2018-01-06T17:24:56.093Z,19.27
2018-01-06T17:27:22.510Z,18.37
2018-01-06T17:29:49.697Z,13.70
2018-01-06T17:32:16.267Z,20.13
2018-01-06T17:34:42.730Z,15.23
2018-01-06T17:37:09.898Z,12.43
2018-01-06T17:39:36.355Z,10.90
2018-01-06T17:42:02.832Z,11.97
2018-01-06T17:44:29.977Z,9.57
2018-01-06T17:46:56.448Z,11.50
2018-01-06T17:49:22.848Z,12.07
2018-01-06T17:51:49.279Z,16.60
2018-01-06T17:54:15.687Z,11.70
2018-01-06T17:56:42.098Z,14.90
2018-01-06T17:59:08.524Z,11.10
2018-01-06T18:01:35.076Z,17.37
2018-01-06T18:04:01.642Z,11.67
2018-01-06T18:06:28.045Z,15.63
2018-01-06T18:08:54.572Z,16.77
2018-01-06T18:11:21.795Z,13.50
2018-01-06T18:13:48.191Z,11.13
2018-01-06T18:16:14.653Z,13.30
2018-01-06T18:18:41.161Z,14.20
2018-01-06T18:21:07.570Z,12.30
2018-01-06T18:23:34.130Z,11.47
2018-01-06T18:26:00.552Z,9.43
2018-01-06T18:28:26.998Z,15.77
2018-01-06T18:30:54.239Z,10.20
2018-01-06T18:33:20.660Z,8.93
2018-01-06T18:35:47.215Z,11.70
2018-01-06T18:38:14.417Z,15.83
2018-01-06T18:40:40.819Z,14.03
2018-01-06T18:43:07.333Z,18.87
2018-01-06T18:45:33.774Z,8.30
2018-01-06T18:48:00.207Z,13.97
2018-01-06T18:50:27.429Z,12.30
2018-01-06T18:52:53.849Z,14.40
2018-01-06T18:55:20.242Z,17.03
2018-01-06T18:57:47.444Z,18.27
2018-01-06T19:00:13.889Z,10.67
2018-01-06T19:02:40.300Z,8.67
2018-01-06T19:05:06.736Z,9.23
2018-01-06T19:07:33.252Z,18.63
2018-01-06T19:09:59.731Z,9.40
2018-01-06T19:12:26.207Z,9.23
2018-01-06T19:14:53.484Z,14.80
2018-01-06T19:17:19.929Z,8.60
2018-01-06T19:19:47.311Z,17.23
2018-01-06T19:22:14.515Z,10.93
2018-01-06T19:24:41.087Z,14.53
2018-01-06T19:27:07.632Z,13.80
2018-01-06T19:29:34.969Z,27.57
2018-01-06T19:32:02.161Z,15.23
2018-01-06T19:34:28.593Z,9.30
2018-01-06T19:36:55.766Z,28.33
2018-01-06T19:39:22.193Z,14.60
2018-01-06T19:41:48.657Z,16.73
2018-01-06T19:44:15.229Z,16.17
2018-01-06T19:46:41.675Z,17.33
2018-01-06T19:49:08.113Z,11.53
2018-01-06T19:51:35.647Z,11.40
2018-01-06T19:54:02.075Z,15.30
2018-01-06T19:56:28.482Z,16.97
2018-01-06T19:58:54.983Z,19.03
2018-01-06T20:01:21.426Z,18.50
2018-01-06T20:03:47.868Z,13.10
2018-01-06T20:06:14.354Z,10.97
2018-01-06T20:08:40.802Z,8.37
2018-01-06T20:11:07.967Z,12.53
2018-01-06T20:13:34.427Z,20.30
2018-01-06T20:16:00.977Z,8.50
2018-01-06T20:18:27.538Z,14.40
2018-01-06T20:20:53.959Z,9.10
2018-01-06T20:23:20.482Z,12.00
2018-01-06T20:25:47.049Z,11.47
2018-01-06T20:28:13.524Z,17.23
2018-01-06T20:30:40.642Z,13.10
2018-01-06T20:33:07.854Z,14.37
2018-01-06T20:35:34.340Z,7.20
2018-01-06T20:38:01.596Z,11.50
2018-01-06T20:40:27.997Z,18.27
2018-01-06T20:42:54.452Z,13.43
2018-01-06T20:45:21.623Z,9.40
2018-01-06T20:47:48.079Z,8.83
2018-01-06T20:50:14.524Z,8.37
2018-01-06T20:52:41.079Z,11.60
2018-01-06T20:55:08.619Z,9.93
2018-01-06T20:57:35.066Z,10.55
2018-01-06T21:00:01.570Z,12.50
2018-01-06T21:02:27.990Z,8.77
2018-01-06T21:04:54.572Z,10.70
2018-01-06T21:07:21.764Z,7.30
2018-01-06T21:09:48.178Z,9.53
2018-01-06T21:12:14.791Z,9.60
2018-01-06T21:14:41.955Z,7.23
2018-01-06T21:17:08.481Z,4.50
2018-01-06T21:19:35.675Z,11.90
2018-01-06T21:22:02.103Z,5.53
2018-01-06T21:24:28.702Z,5.67
2018-01-06T21:26:55.953Z,6.50
2018-01-06T21:29:23.193Z,13.63
2018-01-06T21:31:49.640Z,8.47
2018-01-06T21:34:16.817Z,7.20
2018-01-06T21:36:43.426Z,8.43
2018-01-06T21:39:10.608Z,7.97
2018-01-06T21:41:37.131Z,7.00
2018-01-06T21:44:04.464Z,7.87
2018-01-06T21:46:31.904Z,7.60
2018-01-06T21:48:58.391Z,8.27
2018-01-06T21:51:25.895Z,11.00
2018-01-06T21:53:52.299Z,8.07
2018-01-06T21:56:18.719Z,5.80
2018-01-06T21:58:45.317Z,6.17
2018-01-06T22:01:11.755Z,9.90
2018-01-06T22:03:39.006Z,10.73
2018-01-06T22:06:06.173Z,7.70
2018-01-06T22:08:33.352Z,4.93
2018-01-06T22:10:59.786Z,5.80
2018-01-06T22:13:26.252Z,5.60
2018-01-06T22:15:53.448Z,5.60
2018-01-06T22:18:19.950Z,6.53
2018-01-06T22:20:46.351Z,12.90
2018-01-06T22:23:13.611Z,5.70
2018-01-06T22:25:40.171Z,3.10
2018-01-06T22:28:07.437Z,4.00
2018-01-06T22:30:33.935Z,7.87
2018-01-06T22:33:00.393Z,6.43
2018-01-06T22:35:26.853Z,5.30
2018-01-06T22:37:53.384Z,6.33
2018-01-06T22:40:20.590Z,3.87
2018-01-06T22:42:47.020Z,6.30
2018-01-06T22:45:13.497Z,9.10
2018-01-06T22:47:41.138Z,4.93
2018-01-06T22:50:07.768Z,5.20
2018-01-06T22:52:34.259Z,4.57
2018-01-06T22:55:00.707Z,9.17
2018-01-06T22:57:27.149Z,3.43
2018-01-06T22:59:53.555Z,2.80
2018-01-06T23:02:20.793Z,3.97
2018-01-06T23:04:47.285Z,8.97
2018-01-06T23:07:13.694Z,4.80
2018-01-06T23:09:40.171Z,4.97
2018-01-06T23:12:07.378Z,3.10
2018-01-06T23:14:33.814Z,5.43
2018-01-06T23:17:00.289Z,4.40
2018-01-06T23:19:27.604Z,5.00
2018-01-06T23:21:54.048Z,3.57
2018-01-06T23:24:20.511Z,4.70
2018-01-06T23:26:47.034Z,4.03
2018-01-06T23:29:15.006Z,4.67
2018-01-06T23:31:42.201Z,6.73
2018-01-06T23:34:08.603Z,8.93
2018-01-06T23:36:35.837Z,10.73
2018-01-06T23:39:03.141Z,17.20
2018-01-06T23:41:29.727Z,11.17
2018-01-06T23:43:56.112Z,4.97
2018-01-06T23:46:22.592Z,4.77
2018-01-06T23:48:49.126Z,5.10
2018-01-06T23:51:15.532Z,10.83
2018-01-06T23:53:41.982Z,5.30
2018-01-06T23:56:09.882Z,12.03
2018-01-06T23:58:36.369Z,6.87
